Time;durP1;ratioP1;P1;durP2;ratioP2;P2;SDS_P1;SDS_P2;PMS_P1;PMS_P2;Temp;Humidity;BMP_temperature;BMP_pressure;BME280_temperature;BME280_humidity;BME280_pressure;Samples;Min_cycle;Max_cycle;Signal;HPM_P1;HPM_P2
2023/11/02 00:02:58;;;;;;;20.30;10.10;;;;;;;9.04;100.00;99528.08;5042555;56;1251873;-74
2023/11/02 00:08:06;;;;;;;17.17;10.30;;;;;;;9.02;100.00;99521.26;5060141;56;1256630;-71
2023/11/02 00:13:22;;;;;;;21.82;11.03;;;;;;;9.00;100.00;99510.88;5060496;57;1251397;-77
2023/11/02 00:18:28;;;;;;;21.23;9.70;;;;;;;8.98;100.00;99496.98;5050468;56;1254517;-78
2023/11/02 00:23:43;;;;;;;19.30;8.90;;;;;;;8.96;100.00;99496.27;5085003;55;1247229;-75
2023/11/02 00:28:47;;;;;;;17.47;9.17;;;;;;;8.95;100.00;99490.65;5062559;56;1138785;-76
2023/11/02 00:33:53;;;;;;;15.67;9.37;;;;;;;8.91;100.00;99491.04;5040786;55;1244307;-78
2023/11/02 00:38:59;;;;;;;14.80;9.37;;;;;;;8.87;100.00;99488.31;5048226;56;1251374;-73
2023/11/02 00:44:05;;;;;;;24.93;9.87;;;;;;;8.86;100.00;99479.56;5072579;56;1138593;-80
2023/11/02 00:49:15;;;;;;;17.70;10.08;;;;;;;8.84;100.00;99471.46;5073454;56;1139101;-78
2023/11/02 00:54:59;;;;;;;15.53;8.53;;;;;;;8.84;100.00;99471.46;5053981;57;1141047;-76
2023/11/02 01:00:06;;;;;;;;;;;;;;;8.84;100.00;99472.78;5067564;56;1241986;-72
2023/11/02 01:05:16;;;;;;;27.65;9.45;;;;;;;8.86;100.00;99464.26;5156811;56;1015603;-78
2023/11/02 01:10:24;;;;;;;14.30;8.63;;;;;;;8.86;100.00;99461.63;5084450;56;1257486;-74
2023/11/02 01:15:43;;;;;;;15.57;9.60;;;;;;;8.86;100.00;99454.52;5053177;56;1154451;-74
2023/11/02 01:21:07;;;;;;;17.10;9.47;;;;;;;8.87;100.00;99454.03;5048405;56;1139053;-76
2023/11/02 01:26:34;;;;;;;17.98;10.23;;;;;;;8.85;100.00;99458.15;5048935;56;1245248;-76
2023/11/02 01:31:41;;;;;;;13.83;8.93;;;;;;;8.83;100.00;99451.34;5051963;56;1185265;-74
2023/11/02 01:36:46;;;;;;;13.73;8.57;;;;;;;8.79;100.00;99448.12;5018387;55;1139080;-73
2023/11/02 01:42:08;;;;;;;15.80;8.80;;;;;;;8.73;100.00;99437.63;5053661;57;1139016;-74
2023/11/02 01:47:21;;;;;;;12.60;8.45;;;;;;;8.72;100.00;99439.91;5113041;56;1139001;-79
2023/11/02 01:52:41;;;;;;;18.70;9.68;;;;;;;8.69;100.00;99438.88;5157818;56;1138891;-75
2023/11/02 01:58:06;;;;;;;28.93;10.30;;;;;;;8.67;100.00;99434.22;5139292;56;1138770;-78
2023/11/02 02:03:16;;;;;;;12.77;7.93;;;;;;;8.65;100.00;99428.73;5054238;56;1141062;-77
2023/11/02 02:08:45;;;;;;;18.70;7.97;;;;;;;8.62;100.00;99407.90;5054963;56;1138877;-74
2023/11/02 02:13:56;;;;;;;12.63;7.60;;;;;;;8.59;100.00;99412.95;5074566;56;1138823;-79
2023/11/02 02:19:25;;;;;;;14.43;8.33;;;;;;;8.56;100.00;99409.26;5082074;56;1138924;-76
2023/11/02 02:24:44;;;;;;;14.50;7.30;;;;;;;8.55;100.00;99403.67;5098887;56;1138885;-74
2023/11/02 02:30:22;;;;;;;20.90;7.53;;;;;;;8.50;100.00;99385.26;4923682;57;1139039;-76
2023/11/02 02:35:44;;;;;;;9.60;6.20;;;;;;;8.47;100.00;99373.17;5053568;56;1138907;-77
2023/11/02 02:41:08;;;;;;;11.97;6.50;;;;;;;8.47;100.00;99386.35;5004691;57;1136748;-76
2023/11/02 02:46:17;;;;;;;12.58;6.74;;;;;;;8.48;100.00;99376.16;5135808;56;1138871;-79
2023/11/02 02:51:25;;;;;;;11.97;6.62;;;;;;;8.51;100.00;99371.95;5139205;56;1138925;-76
2023/11/02 02:56:33;;;;;;;13.60;7.87;;;;;;;8.51;100.00;99371.95;5158721;56;1139138;-71
2023/11/02 03:01:44;;;;;;;13.23;6.40;;;;;;;8.47;100.00;99369.23;5138882;56;1139206;-76
2023/11/02 03:07:00;;;;;;;12.43;7.03;;;;;;;8.48;100.00;99374.84;5128037;56;1138878;-74
2023/11/02 03:12:11;;;;;;;15.20;7.16;;;;;;;8.53;100.00;99367.87;5074291;56;1138989;-76
2023/11/02 03:17:59;;;;;;;11.35;7.22;;;;;;;8.52;100.00;99368.35;5074567;56;1138948;-74
2023/11/02 03:23:22;;;;;;;14.53;7.93;;;;;;;8.50;100.00;99365.02;5137422;56;1138879;-75
2023/11/02 03:28:38;;;;;;;11.10;6.80;;;;;;;8.36;100.00;99360.11;5108671;56;1138885;-71
2023/11/02 03:34:06;;;;;;;19.50;7.60;;;;;;;8.27;100.00;99349.00;5102615;56;1138788;-74
2023/11/02 03:39:51;;;;;;;12.23;6.28;;;;;;;8.18;100.00;99344.55;5070848;56;1139275;-73
2023/11/02 03:45:14;;;;;;;15.13;7.40;;;;;;;8.13;100.00;99335.72;5060203;57;1139188;-76
2023/11/02 03:50:33;;;;;;;12.80;7.23;;;;;;;8.11;100.00;99319.21;4995858;57;1138970;-75
2023/11/02 03:55:52;;;;;;;12.07;6.77;;;;;;;8.09;100.00;99310.64;5010150;57;1139118;-73
2023/11/02 04:01:24;;;;;;;12.70;6.97;;;;;;;8.07;100.00;99300.23;5055843;57;1138815;-74
2023/11/02 04:06:46;;;;;;;15.43;7.63;;;;;;;8.04;100.00;99293.91;5041645;57;1138811;-74
2023/11/02 04:12:01;;;;;;;13.83;6.10;;;;;;;8.08;100.00;99299.27;5030193;56;1138737;-74
2023/11/02 04:17:07;;;;;;;14.77;7.27;;;;;;;8.17;100.00;99311.27;5042293;56;1139175;-77
2023/11/02 04:22:13;;;;;;;13.50;7.28;;;;;;;8.17;100.00;99307.32;5142987;56;1139426;-75
2023/11/02 04:27:18;;;;;;;11.33;6.25;;;;;;;8.18;100.00;99303.72;5126372;56;1139090;-75
2023/11/02 04:32:24;;;;;;;11.88;6.20;;;;;;;8.19;100.00;99303.59;5125340;56;1138842;-77
2023/11/02 04:37:29;;;;;;;16.80;6.90;;;;;;;8.17;100.00;99289.72;5146434;56;1138714;-73
2023/11/02 04:42:35;;;;;;;16.17;7.23;;;;;;;8.13;100.00;99281.73;5126316;56;1138821;-75
2023/11/02 04:47:40;;;;;;;12.43;6.93;;;;;;;8.07;100.00;99281.80;5113568;56;1138888;-83
2023/11/02 04:52:46;;;;;;;15.37;8.10;;;;;;;7.98;100.00;99259.36;5062069;56;1139043;-75
2023/11/02 04:57:52;;;;;;;12.10;7.80;;;;;;;7.90;100.00;99261.84;5041968;57;1139037;-75
2023/11/02 05:02:58;;;;;;;10.93;6.87;;;;;;;7.87;100.00;99248.46;5073925;56;1138722;-73
2023/11/02 05:08:08;;;;;;;13.80;7.75;;;;;;;7.87;100.00;99251.09;5115515;56;1138893;-75
2023/11/02 05:13:12;;;;;;;12.23;7.77;;;;;;;7.88;100.00;99251.92;5091409;56;1138996;-73
2023/11/02 05:18:18;;;;;;;17.05;8.33;;;;;;;7.86;100.00;99240.21;5048480;56;1139012;-73
2023/11/02 05:23:24;;;;;;;14.03;7.37;;;;;;;7.87;100.00;99240.56;5043484;56;1138999;-74
2023/11/02 05:28:31;;;;;;;14.07;8.03;;;;;;;7.88;100.00;99240.91;5060505;56;1138632;-77
2023/11/02 05:33:38;;;;;;;13.10;7.50;;;;;;;7.89;100.00;99245.22;5043285;56;1138836;-71
2023/11/02 05:38:45;;;;;;;12.73;8.33;;;;;;;7.91;100.00;99231.92;5043975;56;1138858;-77
2023/11/02 05:43:50;;;;;;;19.25;9.35;;;;;;;7.89;100.00;99220.69;5158029;56;1138721;-76
2023/11/02 05:48:56;;;;;;;17.80;7.67;;;;;;;7.81;100.00;99213.93;5114106;56;1138964;-70
2023/11/02 05:54:01;;;;;;;12.77;8.40;;;;;;;7.77;100.00;99214.70;5110973;56;1138946;-74
2023/11/02 05:59:07;;;;;;;22.90;10.93;;;;;;;7.74;100.00;99203.95;5104978;56;1138934;-73
2023/11/02 06:04:15;;;;;;;16.20;10.18;;;;;;;7.73;100.00;99201.45;5153313;56;1140863;-75
2023/11/02 06:09:21;;;;;;;14.43;9.60;;;;;;;7.70;100.00;99201.23;5096360;56;1141005;-73
2023/11/02 06:14:26;;;;;;;29.10;13.08;;;;;;;7.66;100.00;99204.25;5135471;56;1138579;-76
2023/11/02 06:19:32;;;;;;;9.03;6.67;;;;;;;7.65;100.00;99188.11;5149477;56;1141177;-73
2023/11/02 06:24:38;;;;;;;17.93;9.33;;;;;;;7.66;100.00;99179.25;5084768;56;1136646;-71
2023/11/02 06:29:43;;;;;;;12.88;8.28;;;;;;;7.63;100.00;99170.33;5137030;56;1138770;-73
2023/11/02 06:34:49;;;;;;;21.37;13.43;;;;;;;7.57;100.00;99155.06;5149402;56;1139162;-75
2023/11/02 06:39:54;;;;;;;11.90;7.77;;;;;;;7.55;100.00;99150.41;5106828;56;1141103;-73
2023/11/02 06:45:00;;;;;;;13.67;7.67;;;;;;;7.56;100.00;99141.08;5127513;56;1138829;-77
2023/11/02 06:50:06;;;;;;;14.30;7.87;;;;;;;7.56;100.00;99131.87;5100882;56;1138862;-71
2023/11/02 06:55:12;;;;;;;11.60;8.13;;;;;;;7.57;100.00;99126.13;5105248;56;1138937;-74
2023/11/02 07:00:18;;;;;;;12.82;7.05;;;;;;;7.65;100.00;99116.58;4984491;57;1138912;-72
2023/11/02 07:05:25;;;;;;;14.87;7.40;;;;;;;7.80;100.00;99107.81;5056743;56;1139090;-76
2023/11/02 07:10:31;;;;;;;11.67;7.43;;;;;;;8.05;100.00;99112.58;5118070;56;1139060;-75
2023/11/02 07:15:37;;;;;;;28.87;11.57;;;;;;;8.32;100.00;99105.33;5069030;56;1138590;-76
2023/11/02 07:20:43;;;;;;;22.40;10.97;;;;;;;8.57;100.00;99092.06;5090465;56;1140824;-73
2023/11/02 07:25:49;;;;;;;22.33;10.60;;;;;;;8.87;100.00;99082.28;5138517;56;1141087;-78
2023/11/02 07:30:54;;;;;;;14.07;7.80;;;;;;;9.11;100.00;99078.67;5072149;56;1141239;-77
2023/11/02 07:36:00;;;;;;;15.40;7.83;;;;;;;9.37;100.00;99078.83;5058783;56;1138833;-80
2023/11/02 07:41:07;;;;;;;12.95;5.80;;;;;;;9.59;100.00;99074.98;5112648;56;1138890;-75
2023/11/02 07:46:13;;;;;;;13.87;6.80;;;;;;;9.81;100.00;99062.66;5118311;56;1138822;-73
2023/11/02 07:51:19;;;;;;;13.50;6.85;;;;;;;10.02;100.00;99053.13;5077300;56;1139081;-75
2023/11/02 07:56:25;;;;;;;14.87;6.97;;;;;;;10.15;100.00;99064.14;5068891;55;1140871;-76
2023/11/02 08:01:32;;;;;;;15.27;8.67;;;;;;;10.34;100.00;99057.91;5080871;56;1140940;-76
2023/11/02 08:06:37;;;;;;;19.40;9.87;;;;;;;10.47;100.00;99057.84;4912164;57;1141081;-75
2023/11/02 08:11:43;;;;;;;35.63;15.23;;;;;;;10.57;100.00;99065.66;5042282;56;1140914;-73
2023/11/02 08:16:48;;;;;;;39.07;18.33;;;;;;;10.64;100.00;99061.92;5083402;56;1142810;-76
2023/11/02 08:21:54;;;;;;;13.43;7.53;;;;;;;10.84;100.00;99044.38;5096286;56;1142883;-75
2023/11/02 08:26:59;;;;;;;10.77;6.20;;;;;;;11.10;100.00;99041.70;5104640;56;1140792;-74
2023/11/02 08:32:06;;;;;;;12.63;6.87;;;;;;;11.22;100.00;99035.63;5088961;56;1141319;-76
2023/11/02 08:37:11;;;;;;;12.63;6.33;;;;;;;11.32;100.00;99027.05;5133157;56;1211261;-74
2023/11/02 08:42:17;;;;;;;14.20;6.90;;;;;;;11.47;100.00;99024.12;5089917;56;1140824;-76
2023/11/02 08:47:23;;;;;;;12.75;7.97;;;;;;;11.64;100.00;99016.55;4954584;57;1140921;-77
2023/11/02 08:52:29;;;;;;;12.60;5.50;;;;;;;11.83;100.00;99004.04;5067077;56;1140731;-75
2023/11/02 08:57:35;;;;;;;12.53;6.00;;;;;;;12.04;100.00;98986.34;5089307;56;1140795;-75
2023/11/02 09:02:40;;;;;;;10.23;5.40;;;;;;;12.08;100.00;98977.05;5102034;56;1140988;-76
2023/11/02 09:07:46;;;;;;;7.83;5.13;;;;;;;12.08;100.00;98974.39;5099420;56;1140735;-77
2023/11/02 09:12:52;;;;;;;13.87;5.80;;;;;;;12.19;100.00;98959.51;5083700;56;1138949;-76
2023/11/02 09:17:58;;;;;;;9.83;5.07;;;;;;;12.18;100.00;98949.89;5118060;56;1140770;-77
2023/11/02 09:23:03;;;;;;;8.47;4.73;;;;;;;12.11;100.00;98939.13;5116171;56;1138760;-73
2023/11/02 09:28:09;;;;;;;13.40;7.00;;;;;;;12.07;100.00;98923.75;5069447;56;1138794;-74
2023/11/02 09:33:15;;;;;;;7.65;4.78;;;;;;;12.12;100.00;98922.23;5103608;56;1141027;-75
2023/11/02 09:38:21;;;;;;;13.53;4.85;;;;;;;12.14;100.00;98916.77;5077714;56;1138937;-69
2023/11/02 09:43:27;;;;;;;15.10;5.65;;;;;;;12.13;100.00;98924.38;5063707;56;1141018;-70
2023/11/02 09:48:33;;;;;;;10.23;6.60;;;;;;;12.17;100.00;98934.98;5078855;56;1140913;-73
2023/11/02 09:53:39;;;;;;;8.50;5.37;;;;;;;12.21;100.00;98941.13;5117445;56;1141092;-69
2023/11/02 09:58:45;;;;;;;8.20;5.77;;;;;;;12.25;100.00;98930.48;5042975;56;1138724;-73
2023/11/02 10:03:51;;;;;;;6.50;4.07;;;;;;;12.31;100.00;98918.39;5086778;56;1138884;-77
2023/11/02 10:08:58;;;;;;;19.20;5.77;;;;;;;12.45;100.00;98912.89;5087037;56;1138800;-73
2023/11/02 10:14:04;;;;;;;17.15;8.70;;;;;;;12.51;100.00;98904.27;5066807;56;1140892;-75
2023/11/02 10:19:11;;;;;;;10.93;5.93;;;;;;;12.61;100.00;98873.06;5071788;56;1140960;-73
2023/11/02 10:24:17;;;;;;;10.80;5.75;;;;;;;12.64;100.00;98867.41;5050016;56;1141131;-71
2023/11/02 10:29:24;;;;;;;7.92;5.03;;;;;;;12.66;100.00;98842.87;5133080;56;1141051;-71
2023/11/02 10:34:30;;;;;;;19.67;12.85;;;;;;;12.71;100.00;98829.08;5090527;56;1138861;-73
2023/11/02 10:39:36;;;;;;;8.63;4.77;;;;;;;12.80;100.00;98808.15;5057631;56;1142752;-76
2023/11/02 10:44:43;;;;;;;10.67;5.00;;;;;;;12.80;100.00;98767.86;5066773;56;1138762;-73
2023/11/02 10:49:53;;;;;;;5.93;4.37;;;;;;;12.83;100.00;98749.44;5067586;56;1140598;-73
2023/11/02 10:55:24;;;;;;;10.08;4.53;;;;;;;12.87;100.00;98747.56;5060543;56;1138586;-74
2023/11/02 11:00:31;;;;;;;7.37;4.80;;;;;;;12.97;100.00;98739.38;5043939;56;1141258;-74
2023/11/02 11:05:37;;;;;;;11.07;4.00;;;;;;;13.02;100.00;98740.48;5125484;56;1138644;-74
2023/11/02 11:10:47;;;;;;;6.93;3.93;;;;;;;13.07;100.00;98737.30;5011793;56;1142913;-71
2023/11/02 11:15:54;;;;;;;9.67;4.80;;;;;;;13.08;100.00;98730.17;5042122;56;1138950;-75
2023/11/02 11:21:01;;;;;;;8.27;4.63;;;;;;;13.08;100.00;98715.57;5066445;56;1139099;-72
2023/11/02 11:26:07;;;;;;;7.00;3.60;;;;;;;13.19;100.00;98724.45;5095348;56;1138746;-75
2023/11/02 11:31:57;;;;;;;7.97;4.95;;;;;;;13.27;100.00;98716.44;4953786;58;1138865;-75
2023/11/02 11:38:00;;;;;;;12.93;5.17;;;;;;;13.39;100.00;98695.07;5060738;56;1138748;-70
2023/11/02 11:43:15;;;;;;;6.43;4.63;;;;;;;13.70;100.00;98690.92;5087819;56;1141034;-69
2023/11/02 11:48:38;;;;;;;4.50;3.62;;;;;;;13.91;100.00;98690.16;5053926;56;1139071;-70
2023/11/02 11:53:51;;;;;;;6.00;3.90;;;;;;;13.90;100.00;98691.99;5072091;56;1138863;-73
2023/11/02 11:58:56;;;;;;;7.90;5.20;;;;;;;13.83;100.00;98675.16;5046303;56;1138878;-74
2023/11/02 12:04:02;;;;;;;8.30;4.53;;;;;;;13.67;100.00;98668.20;5105188;56;1138737;-74
2023/11/02 12:09:12;;;;;;;9.20;3.87;;;;;;;13.60;100.00;98678.40;5058026;56;1138822;-72
2023/11/02 12:14:19;;;;;;;7.30;4.47;;;;;;;13.62;100.00;98664.43;5102850;56;1138786;-72
2023/11/02 12:19:25;;;;;;;7.85;4.05;;;;;;;13.63;100.00;98656.79;5091784;56;1139145;-73
2023/11/02 12:24:31;;;;;;;8.70;4.13;;;;;;;13.62;100.00;98653.30;5105394;56;1138775;-76
2023/11/02 12:29:36;;;;;;;14.40;5.77;;;;;;;13.71;100.00;98640.27;5115555;56;1138886;-73
2023/11/02 12:34:42;;;;;;;12.20;7.40;;;;;;;13.76;100.00;98632.22;5104484;56;1140808;-71
2023/11/02 12:40:00;;;;;;;8.93;5.40;;;;;;;13.68;100.00;98633.16;5123053;56;1141125;-74
2023/11/02 12:45:08;;;;;;;17.83;5.13;;;;;;;13.64;100.00;98631.37;5106146;56;1138847;-77
2023/11/02 12:50:31;;;;;;;9.50;4.87;;;;;;;13.57;100.00;98629.15;5151752;56;1141151;-76
2023/11/02 12:55:50;;;;;;;7.10;4.13;;;;;;;13.49;100.00;98617.27;5057178;56;1139079;-78
2023/11/02 13:00:59;;;;;;;7.93;4.03;;;;;;;13.42;100.00;98595.13;5060592;56;1138873;-72
2023/11/02 13:06:11;;;;;;;14.87;5.83;;;;;;;13.38;100.00;98591.19;5067011;56;1139251;-74
2023/11/02 13:11:17;;;;;;;12.48;5.92;;;;;;;13.41;100.00;98600.63;5106580;56;1140856;-75
2023/11/02 13:16:23;;;;;;;16.15;7.00;;;;;;;13.44;100.00;98605.08;5132729;55;1140736;-72
2023/11/02 13:21:29;;;;;;;8.60;4.93;;;;;;;13.53;100.00;98617.73;5123635;56;1140897;-76
2023/11/02 13:26:37;;;;;;;8.80;4.28;;;;;;;13.74;100.00;98593.91;5159206;56;1138908;-73
2023/11/02 13:31:42;;;;;;;12.17;4.23;;;;;;;14.09;100.00;98582.44;5104750;56;1139031;-75
2023/11/02 13:36:47;;;;;;;10.63;4.77;;;;;;;14.26;100.00;98582.19;5133120;56;1140868;-72
2023/11/02 13:41:53;;;;;;;6.73;3.77;;;;;;;14.19;100.00;98591.95;5142030;56;1140758;-73
2023/11/02 13:47:02;;;;;;;12.37;3.70;;;;;;;14.22;100.00;98586.23;5133689;56;1138789;-75
2023/11/02 13:52:08;;;;;;;8.17;4.30;;;;;;;14.50;100.00;98577.86;5118483;56;1140972;-75
2023/11/02 13:57:13;;;;;;;11.35;4.50;;;;;;;14.76;100.00;98567.94;5057471;55;1139352;-73
2023/11/02 14:02:20;;;;;;;10.93;4.40;;;;;;;14.97;100.00;98555.89;5068363;56;1141029;-77
2023/11/02 14:07:26;;;;;;;6.80;3.83;;;;;;;14.72;100.00;98542.22;5055300;56;1140762;-71
2023/11/02 14:12:32;;;;;;;14.63;4.12;;;;;;;14.37;100.00;98540.45;5023324;56;1138728;-75
2023/11/02 14:17:37;;;;;;;9.63;4.70;;;;;;;14.10;100.00;98536.73;5072034;57;1140866;-74
2023/11/02 14:22:43;;;;;;;9.37;4.17;;;;;;;13.93;100.00;98518.88;4970399;57;1138858;-74
2023/11/02 14:27:49;;;;;;;13.20;4.03;;;;;;;13.83;100.00;98501.61;4978593;55;1139179;-74
2023/11/02 14:32:55;;;;;;;13.30;7.20;;;;;;;13.73;100.00;98483.34;5054935;57;1140869;-73
2023/11/02 14:38:01;;;;;;;13.10;5.50;;;;;;;13.65;100.00;98480.78;4969817;57;1140999;-74
2023/11/02 14:43:07;;;;;;;9.47;3.33;;;;;;;13.57;100.00;98464.47;5055112;56;1140885;-73
2023/11/02 14:48:14;;;;;;;11.63;5.30;;;;;;;13.51;100.00;98453.77;5054863;56;1139111;-75
2023/11/02 14:53:20;;;;;;;7.83;3.00;;;;;;;13.50;100.00;98451.61;5066972;56;1141325;-75
2023/11/02 14:58:26;;;;;;;11.55;3.33;;;;;;;13.47;100.00;98432.57;5048482;57;1138985;-74
2023/11/02 15:03:32;;;;;;;12.33;3.10;;;;;;;13.44;100.00;98425.00;5065203;56;1140911;-76
2023/11/02 15:08:39;;;;;;;7.07;3.67;;;;;;;13.41;100.00;98401.48;5105690;56;1140949;-74
2023/11/02 15:13:45;;;;;;;11.33;3.83;;;;;;;13.37;100.00;98398.38;5041925;56;1138973;-74
2023/11/02 15:18:51;;;;;;;16.07;5.07;;;;;;;13.34;100.00;98386.80;5042482;56;1140710;-75
2023/11/02 15:23:57;;;;;;;15.13;4.53;;;;;;;13.29;100.00;98385.23;5037462;57;1141095;-74
2023/11/02 15:29:02;;;;;;;13.50;4.77;;;;;;;13.27;100.00;98397.36;5126498;56;1141430;-72
2023/11/02 15:34:08;;;;;;;14.63;8.27;;;;;;;13.26;100.00;98397.55;5113326;56;1141036;-79
2023/11/02 15:39:14;;;;;;;24.77;9.25;;;;;;;13.22;100.00;98408.21;5124823;56;1141245;-79
2023/11/02 15:44:20;;;;;;;13.08;6.05;;;;;;;13.21;100.00;98421.98;5118162;56;1141168;-74
2023/11/02 15:49:27;;;;;;;13.88;7.30;;;;;;;13.23;100.00;98431.92;5072849;56;1141664;-74
2023/11/02 15:54:33;;;;;;;7.22;4.20;;;;;;;13.21;100.00;98437.09;5094664;56;1140905;-73
2023/11/02 15:59:40;;;;;;;13.85;4.53;;;;;;;13.15;100.00;98419.24;5116550;56;1139072;-72
2023/11/02 16:04:45;;;;;;;10.40;4.10;;;;;;;13.11;100.00;98425.42;5050982;56;1140936;-73
2023/11/02 16:09:51;;;;;;;11.57;4.83;;;;;;;13.05;100.00;98406.25;5131278;56;1140901;-73
2023/11/02 16:14:56;;;;;;;26.33;14.90;;;;;;;13.00;100.00;98389.55;5120049;56;1141217;-76
2023/11/02 16:20:02;;;;;;;15.67;8.00;;;;;;;12.92;100.00;98383.04;5100843;56;1143126;-74
2023/11/02 16:25:08;;;;;;;39.83;18.87;;;;;;;12.89;100.00;98386.56;5142361;56;1141221;-75
2023/11/02 16:30:15;;;;;;;25.03;10.37;;;;;;;12.88;100.00;98401.66;5141909;56;1143251;-73
2023/11/02 16:35:23;;;;;;;11.90;4.00;;;;;;;12.86;100.00;98389.58;5167135;56;1143261;-74
2023/11/02 16:40:28;;;;;;;16.57;4.92;;;;;;;12.81;100.00;98388.83;5106969;56;1140848;-76
2023/11/02 16:45:36;;;;;;;14.83;5.87;;;;;;;12.80;100.00;98373.09;5141183;56;1140885;-73
2023/11/02 16:50:42;;;;;;;12.97;6.13;;;;;;;12.78;100.00;98371.95;5096374;56;1141002;-73
2023/11/02 16:55:48;;;;;;;20.27;11.23;;;;;;;12.73;100.00;98365.04;5054938;57;1141050;-76
2023/11/02 17:01:01;;;;;;;16.40;5.63;;;;;;;12.69;100.00;98353.15;5072292;56;1142826;-73
2023/11/02 17:06:07;;;;;;;25.47;12.03;;;;;;;12.67;100.00;98359.17;5140551;56;1141044;-72
2023/11/02 17:11:18;;;;;;;26.33;11.23;;;;;;;12.65;100.00;98356.70;5051553;57;1143262;-75
2023/11/02 17:16:30;;;;;;;21.87;8.48;;;;;;;12.61;100.00;98354.09;5048977;56;1143250;-73
2023/11/02 17:21:38;;;;;;;46.23;8.93;;;;;;;12.52;100.00;98331.84;5152282;56;1140778;-73
2023/11/02 17:26:45;;;;;;;23.33;9.33;;;;;;;12.49;100.00;98317.63;5126711;56;1140877;-78
2023/11/02 17:31:55;;;;;;;34.13;14.30;;;;;;;12.44;100.00;98308.89;5121963;56;1141015;-75
2023/11/02 17:37:06;;;;;;;20.63;10.17;;;;;;;12.40;100.00;98302.81;5148736;56;1143045;-72
2023/11/02 17:42:20;;;;;;;27.67;12.70;;;;;;;12.37;100.00;98300.55;5093379;56;1143251;-75
2023/11/02 17:47:50;;;;;;;;;;;;;;;;;;;;;
2023/11/02 17:52:56;;;;;;;21.13;10.43;;;;;;;12.25;100.00;98291.72;5125510;56;1141110;-75
2023/11/02 17:58:10;;;;;;;;;;;;;;;12.20;100.00;98284.84;5079185;56;1143027;-74
2023/11/02 18:03:14;;;;;;;23.53;10.70;;;;;;;12.18;100.00;98286.03;5153403;56;975975;-76
2023/11/02 18:08:29;;;;;;;21.10;9.53;;;;;;;12.13;100.00;98287.07;5074754;56;1141904;-76
2023/11/02 18:13:38;;;;;;;16.48;7.55;;;;;;;12.10;100.00;98285.60;5105719;56;1141364;-76
2023/11/02 18:18:45;;;;;;;18.70;8.13;;;;;;;12.12;100.00;98276.97;5103668;56;1140955;-73
2023/11/02 18:23:53;;;;;;;17.33;9.13;;;;;;;12.10;100.00;98279.48;5046269;56;1141211;-78
2023/11/02 18:29:01;;;;;;;16.53;8.50;;;;;;;12.08;100.00;98273.54;5068724;56;1140741;-74
2023/11/02 18:34:09;;;;;;;13.23;8.43;;;;;;;12.07;100.00;98271.92;5064910;56;1140836;-75
2023/11/02 18:39:18;;;;;;;15.48;7.25;;;;;;;12.07;100.00;98267.41;5067490;56;1141061;-74
2023/11/02 18:44:29;;;;;;;17.73;7.80;;;;;;;12.08;100.00;98262.44;5086261;56;1140988;-75
2023/11/02 18:49:41;;;;;;;36.35;16.37;;;;;;;12.07;100.00;98266.09;5029647;56;1141122;-75
2023/11/02 18:54:55;;;;;;;23.97;9.57;;;;;;;12.07;100.00;98270.06;5056979;56;1143297;-71
2023/11/02 18:59:57;;;;;;;23.03;10.77;;;;;;;12.09;100.00;98274.69;5090268;56;1141084;-73
2023/11/02 19:05:05;;;;;;;84.93;44.17;;;;;;;12.02;100.00;98266.34;5086255;56;1142965;-76
2023/11/02 19:10:10;;;;;;;16.10;8.23;;;;;;;12.07;100.00;98273.25;5078710;56;1142907;-73
2023/11/02 19:15:16;;;;;;;22.00;9.20;;;;;;;12.02;100.00;98260.55;5084203;56;1141521;-77
2023/11/02 19:20:21;;;;;;;18.30;8.47;;;;;;;12.04;100.00;98261.19;5112688;56;1141198;-76
2023/11/02 19:25:27;;;;;;;20.83;7.57;;;;;;;12.03;100.00;98255.56;5107652;56;1150407;-73
2023/11/02 19:30:32;;;;;;;21.03;8.83;;;;;;;12.00;100.00;98258.58;5097896;56;1141230;-76
2023/11/02 19:35:38;;;;;;;19.60;7.05;;;;;;;11.97;100.00;98242.53;5143383;56;1141213;-74
2023/11/02 19:40:44;;;;;;;18.77;8.40;;;;;;;11.98;100.00;98246.01;5070956;56;1140843;-72
2023/11/02 19:45:50;;;;;;;23.57;9.00;;;;;;;11.95;100.00;98249.84;5140136;56;1140956;-74
2023/11/02 19:50:57;;;;;;;30.20;13.87;;;;;;;11.93;100.00;98240.42;5146974;56;1140913;-73
2023/11/02 19:56:04;;;;;;;21.53;8.20;;;;;;;11.93;100.00;98245.73;5112107;56;1143029;-74
2023/11/02 20:01:09;;;;;;;16.40;7.37;;;;;;;11.95;100.00;98238.42;5090912;56;1141137;-74
2023/11/02 20:06:15;;;;;;;22.00;7.97;;;;;;;11.96;100.00;98228.97;5096221;56;1140761;-72
2023/11/02 20:11:22;;;;;;;15.23;6.77;;;;;;;11.96;100.00;98222.85;5122731;56;1140918;-73
2023/11/02 20:16:28;;;;;;;20.80;7.63;;;;;;;11.98;100.00;98231.44;5043948;56;1140868;-75
2023/11/02 20:21:36;;;;;;;18.50;7.50;;;;;;;11.98;100.00;98227.47;5111301;56;1141046;-74
2023/11/02 20:26:41;;;;;;;32.20;11.50;;;;;;;11.98;100.00;98216.37;5145176;56;1140952;-72
2023/11/02 20:31:46;;;;;;;17.73;7.80;;;;;;;12.01;100.00;98202.44;5074190;56;1143054;-73
2023/11/02 20:36:52;;;;;;;13.83;7.00;;;;;;;12.03;100.00;98198.61;5041491;56;1141047;-72
2023/11/02 20:41:57;;;;;;;21.03;7.43;;;;;;;12.03;100.00;98193.80;5060423;57;1140945;-73
2023/11/02 20:47:03;;;;;;;20.13;7.00;;;;;;;12.01;100.00;98190.02;5069330;56;1141037;-72
2023/11/02 20:52:09;;;;;;;14.60;7.20;;;;;;;12.01;100.00;98183.89;5063915;56;1140970;-75
2023/11/02 20:57:15;;;;;;;14.33;6.93;;;;;;;12.03;100.00;98173.44;5052071;56;1141135;-72
2023/11/02 21:02:20;;;;;;;14.07;7.17;;;;;;;12.02;100.00;98164.34;5074822;56;1140859;-75
2023/11/02 21:07:26;;;;;;;13.10;6.25;;;;;;;12.01;100.00;98161.38;5046585;56;1140747;-74
2023/11/02 21:12:32;;;;;;;15.40;6.72;;;;;;;12.01;100.00;98162.20;5042006;57;1140952;-76
2023/11/02 21:17:37;;;;;;;17.10;8.05;;;;;;;12.03;100.00;98160.69;5061641;56;1140992;-75
2023/11/02 21:22:43;;;;;;;12.85;7.05;;;;;;;12.05;100.00;98153.39;5042596;56;1140988;-75
2023/11/02 21:27:48;;;;;;;16.45;7.75;;;;;;;12.02;100.00;98155.90;5066115;56;1140946;-73
2023/11/02 21:32:56;;;;;;;13.57;6.43;;;;;;;11.99;100.00;98148.31;5064100;56;1140774;-73
2023/11/02 21:38:01;;;;;;;13.90;6.27;;;;;;;11.98;100.00;98150.14;5109380;56;1141050;-71
2023/11/02 21:43:07;;;;;;;13.77;6.30;;;;;;;11.96;100.00;98154.80;5094966;56;1141153;-72
2023/11/02 21:48:13;;;;;;;12.05;5.60;;;;;;;11.94;100.00;98150.19;5083717;56;1141219;-73
2023/11/02 21:53:18;;;;;;;16.83;6.53;;;;;;;11.95;100.00;98143.06;5062522;56;1140960;-74
2023/11/02 21:58:24;;;;;;;17.57;6.20;;;;;;;11.93;100.00;98143.75;5042485;56;1140850;-76
2023/11/02 22:03:29;;;;;;;13.13;6.43;;;;;;;11.92;100.00;98148.72;4965084;57;1140917;-75
2023/11/02 22:08:35;;;;;;;15.20;7.15;;;;;;;11.93;100.00;98143.75;5145694;56;1141002;-72
2023/11/02 22:13:41;;;;;;;13.40;7.27;;;;;;;11.96;100.00;98154.80;5064881;56;1140923;-73
2023/11/02 22:18:47;;;;;;;19.57;7.00;;;;;;;11.98;100.00;98142.70;5041379;56;1140916;-73
2023/11/02 22:23:53;;;;;;;10.47;5.40;;;;;;;11.94;100.00;98138.27;4973656;57;1140934;-74
2023/11/02 22:28:59;;;;;;;16.30;5.87;;;;;;;11.96;100.00;98148.17;5068434;56;1141012;-76
2023/11/02 22:34:07;;;;;;;15.57;6.40;;;;;;;11.97;100.00;98132.60;5099111;56;1140988;-75
2023/11/02 22:39:12;;;;;;;13.80;7.07;;;;;;;11.97;100.00;98136.58;5041939;56;1141204;-71
2023/11/02 22:44:19;;;;;;;12.63;5.43;;;;;;;11.98;100.00;98126.80;5062142;56;1140852;-75
2023/11/02 22:49:24;;;;;;;14.20;6.77;;;;;;;12.01;100.00;98115.84;5053720;56;1140781;-75
2023/11/02 22:54:30;;;;;;;18.70;7.20;;;;;;;12.02;100.00;98117.98;5064470;56;1140704;-74
2023/11/02 22:59:36;;;;;;;15.20;5.63;;;;;;;12.01;100.00;98110.55;5072014;56;1141024;-75
2023/11/02 23:04:42;;;;;;;13.08;6.05;;;;;;;12.01;100.00;98104.42;5053803;56;1140945;-72
2023/11/02 23:09:48;;;;;;;17.27;6.53;;;;;;;12.02;100.00;98102.09;5052389;56;1140932;-73
2023/11/02 23:14:54;;;;;;;13.05;6.85;;;;;;;12.02;100.00;98090.99;5079915;56;1140926;-73
2023/11/02 23:20:04;;;;;;;16.73;5.63;;;;;;;11.98;100.00;98091.86;5067421;56;1140871;-74